KOEB

Branch County Memorial Airport

Coldwater, Michigan, USA
METAR KOEB 210415Z AUTO 20003KT 3SM BR OVC005 02/02 A3002 RMK AO2 T00220022
Observed Flight Rules
Jan-21 @ 04:15 UTC (29 minutes ago) Instrument Flight Rules
Wind Visibility Clouds Conditions
200° at 3 knots 3 miles
  • Overcast at 500' AGL
  • Mist
Temperatures Readings
Current 2°C / 36°F
Dewpoint 2°C / 36°F
Humidity 100%
Altimeter 30.02" Hg
Pressure 1017 hPa
Elevation 292
METAR KOEB 210415Z AUTO 20003KT 3SM BR OVC005 02/02 A3002 RMK AO2 T00220022
Observed Flight Rules
Jan-21 @ 04:15 UTC
(29 minutes ago)
IFR
Wind Visibility
200° at 3 knots 3 miles
Clouds
  • Overcast at 500' AGL
Conditions
  • Mist
Temperature Dewpoint
2°C / 36°F 2°C / 36°F
Humidity Altimeter Pressure
100% 30.02" Hg 1017 hPa